Data for 03/02/2015

Time Sea-Level Adjusted Pressure Absolute Pressure Temperature Relative Humidity Dew Point   
(mb) (inHg) (mb) (inHg) (C) (F) (%) (C) (F)
00:05 1016 30 845 24.95 -6.3 20.7 50 -15.1 4.8
00:10 1016 30 845 24.95 -6.3 20.6 51 -14.9 5.1
00:15 1016 30 845 24.95 -6.5 20.4 52 -14.9 5.2
00:20 1016 30 845 24.95 -6.6 20.2 52 -14.9 5.1
00:25 1016 30 845 24.95 -6.6 20.1 52 -14.9 5.1
00:30 1016 30 845 24.95 -6.6 20 52 -15 4.9
00:35 1015 29.97 845 24.95 -6.7 19.9 53 -14.8 5.3
00:40 1015 29.97 845 24.95 -6.9 19.5 53 -14.9 5.1
00:45 1015 29.97 844 24.92 -6.9 19.5 53 -15 5
00:50 1015 29.97 844 24.92 -6.9 19.7 53 -15 5
00:55 1015 29.97 844 24.92 -6.8 19.7 52 -15 5
01:00 1015 29.97 844 24.92 -6.8 19.7 52 -15 5
01:05 1015 29.97 844 24.92 -6.8 19.8 52 -15 4.9
01:10 1015 29.97 844 24.92 -6.9 19.7 53 -15 5.1
01:15 1015 29.97 844 24.92 -7 19.5 53 -15.1 4.8
01:20 1015 29.97 844 24.92 -7 19.4 52 -15.2 4.6
01:25 1015 29.97 844 24.92 -6.9 19.5 52 -15.2 4.6
01:30 1015 29.97 844 24.92 -7 19.4 52 -15.2 4.7
01:35 1015 29.97 844 24.92 -7 19.3 52 -15.4 4.4
01:40 1015 29.97 844 24.92 -7 19.4 52 -15.3 4.4
01:45 1015 29.97 844 24.92 -7.1 19.3 52 -15.4 4.3
01:50 1015 29.97 844 24.92 -6.9 19.6 50 -15.6 4
01:55 1015 29.97 844 24.92 -6.8 19.7 51 -15.4 4.3
02:00 1015 29.97 844 24.92 -7.1 19.3 52 -15.4 4.3
02:05 1015 29.97 844 24.92 -7.1 19.2 51 -15.6 4
02:10 1015 29.97 844 24.92 -7 19.5 50 -15.7 3.8
02:15 1015 29.97 844 24.92 -6.9 19.7 49 -15.8 3.6
02:20 1015 29.97 844 24.92 -6.8 19.7 50 -15.7 3.8
02:25 1015 29.97 844 24.92 -6.9 19.7 49 -15.9 3.4
02:30 1015 29.97 844 24.92 -6.8 19.7 49 -15.8 3.5
02:35 1015 29.97 844 24.92 -7 19.5 50 -15.8 3.6
02:40 1014 29.94 844 24.92 -7.2 19 51 -15.8 3.6
02:45 1015 29.97 844 24.92 -7.3 18.8 50 -16.1 3
02:50 1014 29.94 844 24.92 -7.1 19.2 49 -16 3.2
02:55 1014 29.94 844 24.92 -7.2 19.1 49 -16.1 3.1
03:00 1014 29.94 844 24.92 -7 19.4 48 -16.2 2.8
03:05 1014 29.94 844 24.92 -6.9 19.5 48 -16.2 2.9
03:10 1014 29.94 844 24.92 -7.1 19.2 49 -16.2 2.9
03:15 1014 29.94 843 24.89 -7.1 19.1 47 -16.6 2.1
03:20 1014 29.94 843 24.89 -6.7 19.9 47 -16.4 2.5
03:25 1014 29.94 843 24.89 -6.9 19.6 47 -16.5 2.3
03:30 1014 29.94 843 24.89 -7 19.4 48 -16.4 2.5
03:35 1014 29.94 843 24.89 -7.3 18.9 48 -16.5 2.3
03:40 1014 29.94 843 24.89 -7.4 18.8 47 -16.7 1.9
03:45 1014 29.94 843 24.89 -7.1 19.3 46 -16.9 1.5
03:50 1014 29.94 843 24.89 -6.8 19.7 46 -16.6 2.2
03:55 1014 29.94 843 24.89 -7 19.3 47 -16.5 2.2
04:00 1014 29.94 843 24.89 -7 19.4 45 -16.9 1.5
04:05 1014 29.94 843 24.89 -7 19.5 45 -17 1.3
04:10 1014 29.94 843 24.89 -6.8 19.7 45 -16.8 1.7
04:15 1014 29.94 843 24.89 -7 19.3 46 -16.7 1.9
04:20 1013 29.91 843 24.89 -7 19.4 44 -17.3 0.9
04:25 1013 29.91 843 24.89 -6.9 19.7 48 -16.1 3
04:30 1013 29.91 842 24.86 -7.6 18.3 47 -17.2 1
04:35 1013 29.91 842 24.86 -7.2 19 46 -16.9 1.5
04:40 1013 29.91 842 24.86 -7.2 19.1 46 -16.9 1.6
04:45 1013 29.91 842 24.86 -7.2 19 46 -16.9 1.5
04:50 1013 29.91 842 24.86 -6.8 19.7 44 -17.2 1
04:55 1013 29.91 842 24.86 -7 19.4 45 -17.2 1.1
05:00 1013 29.91 842 24.86 -7.2 19.1 46 -17.1 1.3
05:05 1013 29.91 842 24.86 -7.5 18.6 47 -16.8 1.7
05:10 1013 29.91 842 24.86 -7.8 18 47 -17.2 1.1
05:15 1013 29.91 842 24.86 -8 17.6 49 -17 1.5
05:20 1013 29.91 842 24.86 -8.1 17.5 50 -16.9 1.7
05:25 1013 29.91 842 24.86 -8.1 17.3 50 -16.8 1.7
05:30 1013 29.91 842 24.86 -8.2 17.2 51 -16.8 1.8
05:35 1013 29.91 842 24.86 -8.4 16.9 51 -16.8 1.8
05:40 1013 29.91 842 24.86 -8.4 17 49 -17.3 0.9
05:45 1013 29.91 842 24.86 -8.2 17.3 50 -17 1.5
05:50 1013 29.91 842 24.86 -8.2 17.2 50 -16.9 1.5
05:55 1013 29.91 842 24.86 -8.4 16.9 51 -16.7 1.9
06:00 1013 29.91 842 24.86 -8.5 16.7 52 -16.7 2
06:05 1013 29.91 842 24.86 -8.6 16.5 53 -16.6 2.1
06:10 1013 29.91 842 24.86 -8.5 16.7 52 -16.6 2.1
06:15 1013 29.91 842 24.86 -8.6 16.6 52 -16.7 2
06:20 1013 29.91 842 24.86 -8.4 16.9 51 -16.9 1.5
06:25 1013 29.91 842 24.86 -8.1 17.4 50 -16.8 1.7
06:30 1013 29.91 842 24.86 -7.9 17.8 49 -16.9 1.6
06:35 1013 29.91 842 24.86 -7.8 18 49 -16.7 1.9
06:40 1013 29.91 842 24.86 -7.8 18.1 49 -16.7 1.9
06:45 1013 29.91 842 24.86 -7.9 17.9 48 -17 1.4
06:50 1013 29.91 842 24.86 -8 17.6 50 -16.8 1.8
06:55 1013 29.91 842 24.86 -8.2 17.3 51 -16.7 1.9
07:00 1013 29.91 842 24.86 -8.4 16.9 50 -17 1.3
07:05 1013 29.91 842 24.86 -8.4 16.9 50 -17 1.3
07:10 1013 29.91 842 24.86 -8.5 16.7 52 -16.7 2
07:15 1013 29.91 842 24.86 -8.8 16.3 52 -16.9 1.6
07:20 1012 29.88 842 24.86 -8.6 16.4 51 -17 1.3
07:25 1012 29.88 842 24.86 -8.4 17 49 -17.3 0.9
07:30 1012 29.88 842 24.86 -8.2 17.3 49 -17 1.4
07:35 1012 29.88 841 24.83 -8 17.7 47 -17.5 0.5
07:40 1012 29.88 841 24.83 -7.6 18.3 46 -17.2 1
07:45 1012 29.88 841 24.83 -7.3 18.8 46 -17.1 1.1
07:50 1012 29.88 841 24.83 -7.8 18 48 -16.9 1.6
07:55 1012 29.88 841 24.83 -8.2 17.2 50 -16.9 1.6
08:00 1012 29.88 841 24.83 -8.3 17.1 50 -16.9 1.5
08:05 1012 29.88 841 24.83 -8.5 16.8 51 -17 1.4
08:10 1012 29.88 841 24.83 -8.5 16.7 51 -17.1 1.3
08:15 1012 29.88 841 24.83 -8.5 16.7 50 -17.2 1
08:20 1012 29.88 841 24.83 -8.3 17 50 -17.1 1.2
08:25 1012 29.88 841 24.83 -8.3 17.1 49 -17.2 1.1
08:30 1012 29.88 841 24.83 -8.2 17.2 49 -17 1.3
08:35 1012 29.88 841 24.83 -7.8 18 48 -17 1.4
08:40 1012 29.88 841 24.83 -7.3 18.9 48 -16.6 2.1
08:45 1012 29.88 841 24.83 -7.1 19.2 47 -16.7 1.9
08:50 1012 29.88 841 24.83 -6.9 19.6 44 -17.3 0.9
08:55 1012 29.88 841 24.83 -6.4 20.5 42 -17.3 0.8
09:00 1012 29.88 841 24.83 -5.7 21.7 43 -16.3 2.7
09:05 1012 29.88 841 24.83 -6.2 20.9 44 -16.5 2.3
09:10 1012 29.88 841 24.83 -6.1 21.1 42 -17 1.5
09:15 1012 29.88 841 24.83 -5.1 22.8 40 -16.6 2
09:20 1012 29.88 841 24.83 -4.4 24.1 39 -16.4 2.5
09:25 1012 29.88 841 24.83 -3.9 24.9 38 -16.4 2.4
09:30 1012 29.88 841 24.83 -3.5 25.8 36 -16.4 2.4
09:35 1012 29.88 841 24.83 -3.3 26.1 36 -16.3 2.6
09:40 1012 29.88 841 24.83 -2.7 27.2 34 -16.5 2.4
09:45 1012 29.88 841 24.83 -2.9 26.8 36 -15.9 3.4
09:50 1012 29.88 841 24.83 -3.8 25.1 40 -15.5 4.1
09:55 1012 29.88 841 24.83 -3.8 25.2 38 -16 3.2
10:00 1012 29.88 841 24.83 -3.1 26.4 37 -15.9 3.4
10:05 1012 29.88 841 24.83 -2.4 27.7 35 -16.1 3.1
10:10 1012 29.88 841 24.83 -2.6 27.3 34 -16.3 2.6
10:15 1012 29.88 842 24.86 -2.6 27.3 35 -16.2 2.8
10:20 1012 29.88 842 24.86 -2.7 27.1 33 -16.9 1.5
10:25 1012 29.88 842 24.86 -3.2 26.2 35 -16.5 2.2
10:30 1012 29.88 842 24.86 -2.6 27.2 36 -15.7 3.7
10:35 1012 29.88 842 24.86 -2.4 27.8 35 -15.9 3.4
10:40 1012 29.88 842 24.86 -2.1 28.3 35 -15.7 3.8
10:45 1012 29.88 842 24.86 -1.8 28.8 34 -15.8 3.6
10:50 1012 29.88 842 24.86 -0.9 30.3 31 -16 3.2
10:55 1012 29.88 842 24.86 -0.6 30.9 30 -16.4 2.5
11:00 1012 29.88 841 24.83 -0.2 31.7 29 -16.2 2.8
11:05 1012 29.88 842 24.86 0.2 32.3 27 -16.6 2.1
11:10 1012 29.88 841 24.83 0.2 32.3 27 -16.8 1.8
11:15 1012 29.88 841 24.83 -0.7 30.8 28 -16.9 1.6
11:20 1012 29.88 841 24.83 -0.6 30.9 28 -17 1.3
11:25 1012 29.88 841 24.83 -0.1 31.8 27 -17.2 1
11:30 1012 29.88 842 24.86 -0.3 31.5 27 -17 1.4
11:35 1012 29.88 841 24.83 -0.5 31 28 -17.1 1.1
11:40 1012 29.88 841 24.83 0.6 33 25 -17.5 0.5
11:45 1012 29.88 841 24.83 1.2 34.2 23 -17.6 0.3
11:50 1012 29.88 841 24.83 1.3 34.4 25 -16.6 2.1
11:55 1012 29.88 841 24.83 1 33.8 26 -16.6 2.1
12:00 1012 29.88 841 24.83 0.9 33.6 24 -17.7 0.1
12:05 1011 29.85 841 24.83 0.9 33.7 24 -17.7 0.1
12:10 1011 29.85 841 24.83 1.1 34 24 -17.6 0.4
12:15 1011 29.85 840 24.81 0.8 33.5 25 -17.1 1.3
12:20 1011 29.85 840 24.81 1.6 34.8 23 -17.6 0.3
12:25 1011 29.85 840 24.81 2.2 35.9 24 -16.7 2
12:30 1011 29.85 840 24.81 2.9 37.3 22 -16.9 1.6
12:35 1011 29.85 840 24.81 2.9 37.3 24 -15.8 3.6
12:40 1011 29.85 840 24.81 2.4 36.2 23 -16.9 1.5
12:45 1011 29.85 840 24.81 1.8 35.2 24 -17 1.5
12:50 1011 29.85 840 24.81 2.8 37 22 -16.9 1.5
12:55 1011 29.85 840 24.81 2.5 36.4 23 -17 1.5
13:00 1011 29.85 840 24.81 3.5 38.3 22 -16.2 2.8
13:05 1011 29.85 840 24.81 3.8 38.9 19 -17.8 0
13:10 1011 29.85 840 24.81 3.8 38.9 20 -17.5 0.5
13:15 1011 29.85 840 24.81 4.2 39.6 19 -17.8 -0
13:20 1011 29.85 840 24.81 4.6 40.3 19 -17.5 0.5
13:25 1011 29.85 840 24.81 4.7 40.5 20 -16.3 2.6
13:30 1011 29.85 840 24.81 3.5 38.2 20 -17.2 1
13:35 1011 29.85 840 24.81 3.2 37.7 20 -17.6 0.4
13:40 1011 29.85 840 24.81 4.8 40.6 18 -17.5 0.6
13:45 1010 29.83 840 24.81 4.1 39.5 21 -16.2 2.8
13:50 1010 29.83 839 24.78 4 39.3 20 -16.8 1.7
13:55 1010 29.83 839 24.78 4.4 40 20 -16.7 2
14:00 1010 29.83 839 24.78 4.8 40.7 21 -15.7 3.7
14:05 1009 29.8 839 24.78 3.9 39.1 23 -15.3 4.5
14:10 1009 29.8 839 24.78 3.4 38.2 22 -16.3 2.6
14:15 1010 29.83 839 24.78 4.5 40.1 22 -15.7 3.7
14:20 1010 29.83 839 24.78 4.4 40 21 -16 3.2
14:25 1010 29.83 839 24.78 5 41 21 -15.6 4
14:30 1010 29.83 839 24.78 5.3 41.5 20 -15.9 3.4
14:35 1010 29.83 839 24.78 5.2 41.4 20 -15.9 3.3
14:40 1010 29.83 839 24.78 4.8 40.6 20 -16.1 2.9
14:45 1010 29.83 839 24.78 4 39.3 23 -15.3 4.5
14:50 1010 29.83 839 24.78 3.6 38.5 24 -15.4 4.3
14:55 1009 29.8 839 24.78 5 41 21 -15.8 3.5
15:00 1009 29.8 839 24.78 5 41.1 21 -15.6 3.9
15:05 1009 29.8 839 24.78 5.4 41.7 20 -15.7 3.7
15:10 1009 29.8 839 24.78 4.9 40.9 21 -15.4 4.2
15:15 1009 29.8 839 24.78 5.1 41.2 20 -15.9 3.4
15:20 1009 29.8 838 24.75 5.4 41.7 19 -16.4 2.5
15:25 1009 29.8 838 24.75 5.6 42.1 19 -16.1 3
15:30 1009 29.8 838 24.75 5.5 41.9 21 -15.4 4.2
15:35 1009 29.8 838 24.75 5.4 41.8 20 -15.9 3.3
15:40 1009 29.8 838 24.75 5.4 41.8 19 -16.2 2.8
15:45 1009 29.8 838 24.75 5.7 42.3 19 -16.4 2.5
15:50 1009 29.8 838 24.75 5.7 42.2 19 -16.3 2.7
15:55 1009 29.8 838 24.75 5.7 42.2 21 -15.2 4.7
16:00 1009 29.8 838 24.75 6 42.9 18 -16.4 2.6
16:05 1009 29.8 838 24.75 6.1 43.1 20 -15.4 4.3
16:10 1009 29.8 838 24.75 5.9 42.6 19 -15.8 3.5
16:15 1009 29.8 838 24.75 5.9 42.6 21 -14.8 5.4
16:20 1008 29.77 838 24.75 5.6 42 20 -16 3.3
16:25 1008 29.77 838 24.75 5.3 41.5 20 -15.8 3.6
16:30 1008 29.77 838 24.75 5.5 41.9 19 -16.4 2.4
16:35 1008 29.77 838 24.75 6 42.9 19 -15.9 3.4
16:40 1008 29.77 838 24.75 6.1 42.9 19 -15.9 3.4
16:45 1008 29.77 838 24.75 5.9 42.6 20 -15.7 3.8
16:50 1008 29.77 838 24.75 5.5 42 20 -15.6 4
16:55 1008 29.77 838 24.75 5.7 42.2 19 -16 3.2
17:00 1008 29.77 838 24.75 5.7 42.3 19 -16.2 2.9
17:05 1008 29.77 837 24.72 5.7 42.2 19 -16 3.2
17:10 1008 29.77 837 24.72 5.8 42.4 20 -15.4 4.2
17:15 1008 29.77 837 24.72 6.1 43 20 -15.5 4
17:20 1008 29.77 837 24.72 5.6 42.1 22 -14.8 5.4
17:25 1008 29.77 837 24.72 5.2 41.4 23 -14.2 6.5
17:30 1008 29.77 837 24.72 4.3 39.7 27 -13.2 8.3
17:35 1008 29.77 837 24.72 4.1 39.3 26 -13.9 7
17:40 1008 29.77 837 24.72 4.5 40.1 28 -12.5 9.6
17:45 1008 29.77 838 24.75 4.3 39.7 30 -11.8 10.7
17:50 1008 29.77 838 24.75 3.2 37.8 31 -12.4 9.7
17:55 1009 29.8 838 24.75 3.1 37.5 33 -11.7 11
18:00 1008 29.77 838 24.75 2.8 37.1 34 -11.7 10.9
18:05 1008 29.77 838 24.75 3.4 38.1 32 -11.9 10.6
18:10 1008 29.77 838 24.75 3.6 38.5 33 -11.3 11.7
18:15 1008 29.77 838 24.75 3.3 37.9 36 -10.6 13
18:20 1009 29.8 838 24.75 2.7 36.8 37 -10.5 13.1
18:25 1009 29.8 838 24.75 2.6 36.7 36 -11 12.1
18:30 1009 29.8 838 24.75 2.2 36 40 -9.9 14.2
18:35 1009 29.8 838 24.75 1.8 35.2 41 -10 13.9
18:40 1009 29.8 838 24.75 1.3 34.3 42 -10.2 13.7
18:45 1009 29.8 838 24.75 1.1 33.9 47 -9.1 15.6
18:50 1009 29.8 838 24.75 0.5 32.9 49 -9 15.7
18:55 1009 29.8 838 24.75 0.1 32.3 49 -9.3 15.3
19:00 1009 29.8 838 24.75 -0.1 31.8 52 -8.7 16.3
19:05 1009 29.8 839 24.78 -0.3 31.4 54 -8.6 16.5
19:10 1009 29.8 839 24.78 -0.6 30.8 56 -8.4 16.9
19:15 1009 29.8 839 24.78 -0.8 30.6 56 -8.4 16.9
19:20 1009 29.8 839 24.78 -1.1 30.1 57 -8.5 16.6
19:25 1009 29.8 839 24.78 -1.4 29.5 58 -8.6 16.5
19:30 1009 29.8 839 24.78 -1.6 29.2 58 -8.7 16.3
19:35 1009 29.8 839 24.78 -1.7 29 60 -8.4 16.8
19:40 1009 29.8 839 24.78 -1.8 28.8 60 -8.5 16.7
19:45 1009 29.8 839 24.78 -1.8 28.8 59 -8.8 16.1
19:50 1010 29.83 839 24.78 -2 28.4 60 -8.8 16.1
19:55 1010 29.83 839 24.78 -2.3 27.9 63 -8.3 17
20:00 1010 29.83 839 24.78 -2.7 27.2 63 -8.7 16.4
20:05 1010 29.83 839 24.78 -2.8 26.9 63 -8.9 16
20:10 1010 29.83 839 24.78 -3.1 26.5 63 -9.2 15.5
20:15 1010 29.83 839 24.78 -3.1 26.4 65 -8.8 16.2
20:20 1010 29.83 839 24.78 -3.2 26.3 64 -9.1 15.6
20:25 1010 29.83 839 24.78 -3.1 26.3 63 -9.3 15.3
20:30 1010 29.83 839 24.78 -3.3 26.1 62 -9.6 14.8
20:35 1010 29.83 839 24.78 -3.3 26 64 -9.1 15.6
20:40 1010 29.83 839 24.78 -3.4 25.9 67 -8.7 16.3
20:45 1010 29.83 839 24.78 -3.4 25.8 63 -9.4 15
20:50 1010 29.83 840 24.81 -3.7 25.3 63 -9.7 14.5
20:55 1011 29.85 840 24.81 -4.2 24.5 67 -9.4 15.1
21:00 1011 29.85 840 24.81 -4.4 24 68 -9.5 14.9
21:05 1011 29.85 840 24.81 -4.7 23.5 71 -9.1 15.6
21:10 1011 29.85 840 24.81 -4.9 23.2 72 -9.2 15.4
21:15 1011 29.85 840 24.81 -5.3 22.5 74 -9.2 15.5
21:20 1011 29.85 840 24.81 -5.4 22.3 71 -9.8 14.4
21:25 1011 29.85 840 24.81 -5.6 21.9 71 -10 13.9
21:30 1011 29.85 841 24.83 -5.6 21.9 72 -9.9 14.2
21:35 1011 29.85 841 24.83 -5.7 21.7 69 -10.6 13
21:40 1011 29.85 841 24.83 -5.9 21.3 72 -10.2 13.6
21:45 1012 29.88 841 24.83 -6.1 21.1 73 -10.1 13.7
21:50 1012 29.88 841 24.83 -6.3 20.6 74 -10.2 13.7
21:55 1012 29.88 841 24.83 -6.6 20.1 75 -10.4 13.2
22:00 1012 29.88 841 24.83 -6.7 19.9 76 -10.2 13.6
22:05 1012 29.88 841 24.83 -6.9 19.6 75 -10.6 13
22:10 1012 29.88 841 24.83 -7.2 19 77 -10.6 12.9
22:15 1012 29.88 841 24.83 -7.3 18.9 79 -10.4 13.2
22:20 1012 29.88 842 24.86 -7.1 19.3 78 -10.2 13.6
22:25 1013 29.91 842 24.86 -6.9 19.6 76 -10.4 13.2
22:30 1013 29.91 842 24.86 -6.9 19.5 74 -10.9 12.4
22:35 1013 29.91 842 24.86 -7 19.4 73 -11 12.2
22:40 1013 29.91 842 24.86 -7.1 19.3 73 -11.2 11.9
22:45 1013 29.91 842 24.86 -7.1 19.2 72 -11.3 11.7
22:50 1013 29.91 842 24.86 -7.4 18.8 76 -10.8 12.5
22:55 1013 29.91 842 24.86 -7.7 18.2 77 -11 12.2
23:00 1013 29.91 843 24.89 -7.6 18.4 75 -11.2 11.8
23:05 1013 29.91 843 24.89 -7.3 18.8 72 -11.5 11.3
23:10 1013 29.91 843 24.89 -7.4 18.6 73 -11.4 11.4
23:15 1013 29.91 843 24.89 -7.6 18.4 74 -11.4 11.4
23:20 1013 29.91 843 24.89 -7.9 17.8 77 -11.3 11.7
23:25 1014 29.94 843 24.89 -8.1 17.4 79 -11.1 12
23:30 1014 29.94 843 24.89 -8.4 17 81 -11.1 12
23:35 1014 29.94 843 24.89 -8.5 16.7 81 -11.1 11.9
23:40 1014 29.94 843 24.89 -8.5 16.6 82 -11 12.2
23:45 1014 29.94 843 24.89 -8.6 16.6 81 -11.2 11.9
23:50 1014 29.94 843 24.89 -8.6 16.5 82 -11.2 11.9
23:55 1014 29.94 843 24.89 -8.7 16.4 82 -11.2 11.9
24:00 1014 29.94 843 24.89 -8.7 16.3 83 -11.1 11.9